createdAt,value
2022-11-14T00:01:22.045Z,98360.72
2022-11-14T00:03:55.284Z,98366.13
2022-11-14T00:06:22.267Z,98360.94
2022-11-14T00:08:49.529Z,98359.25
2022-11-14T00:11:17.009Z,98352.50
2022-11-14T00:13:44.288Z,98356.28
2022-11-14T00:16:11.545Z,98348.63
2022-11-14T00:18:39.063Z,98349.66
2022-11-14T00:21:06.428Z,98356.56
2022-11-14T00:23:37.206Z,98358.38
2022-11-14T00:26:04.766Z,98360.91
2022-11-14T00:28:35.347Z,98355.84
2022-11-14T00:31:02.565Z,98358.66
2022-11-14T00:33:29.689Z,98356.06
2022-11-14T00:37:08.616Z,98357.13
2022-11-14T00:39:49.623Z,98348.66
2022-11-14T00:42:28.965Z,98353.09
2022-11-14T00:44:57.320Z,98342.03
2022-11-14T00:47:28.169Z,98344.00
2022-11-14T00:50:28.011Z,98346.72
2022-11-14T00:52:55.468Z,98340.72
2022-11-14T00:55:33.108Z,98343.28
2022-11-14T01:01:36.909Z,98350.00
2022-11-14T01:04:11.788Z,98342.25
2022-11-14T01:07:01.016Z,98336.06
2022-11-14T01:09:42.785Z,98346.34
2022-11-14T01:12:15.406Z,98334.38
2022-11-14T01:14:42.590Z,98335.34
2022-11-14T01:17:10.089Z,98332.97
2022-11-14T01:19:37.426Z,98331.13
2022-11-14T01:22:06.667Z,98326.84
2022-11-14T01:24:34.942Z,98324.38
2022-11-14T01:27:03.142Z,98320.09
2022-11-14T01:29:33.452Z,98324.38
2022-11-14T01:32:01.354Z,98321.72
2022-11-14T01:34:29.908Z,98323.59
2022-11-14T01:36:57.397Z,98324.66
2022-11-14T01:39:26.560Z,98319.69
2022-11-14T01:41:54.153Z,98317.94
2022-11-14T01:44:50.517Z,98321.38
2022-11-14T01:47:39.800Z,98308.38
2022-11-14T01:50:07.580Z,98311.09
2022-11-14T01:52:38.854Z,98312.81
2022-11-14T01:55:14.230Z,98312.94
2022-11-14T01:57:48.833Z,98319.94
2022-11-14T02:00:19.585Z,98314.75
2022-11-14T02:02:47.180Z,98321.50
2022-11-14T02:05:17.628Z,98313.91
2022-11-14T02:07:45.489Z,98313.19
2022-11-14T02:10:20.170Z,98314.44
2022-11-14T02:12:48.009Z,98309.94
2022-11-14T02:15:15.662Z,98311.63
2022-11-14T02:17:44.561Z,98303.72
2022-11-14T02:20:12.347Z,98298.63
2022-11-14T02:22:41.492Z,98299.59
2022-11-14T02:25:10.969Z,98299.69
2022-11-14T02:27:40.039Z,98296.28
2022-11-14T02:30:12.393Z,98298.97
2022-11-14T02:33:08.835Z,98305.13
2022-11-14T02:35:26.927Z,98298.25
2022-11-14T02:37:54.088Z,98300.06
2022-11-14T02:40:21.631Z,98306.97
2022-11-14T02:42:48.936Z,98300.84
2022-11-14T02:45:16.245Z,98298.63
2022-11-14T02:47:43.405Z,98303.69
2022-11-14T02:50:11.095Z,98301.88
2022-11-14T02:52:38.110Z,98307.22
2022-11-14T02:55:06.732Z,98302.81
2022-11-14T02:57:33.960Z,98297.44
2022-11-14T03:00:01.045Z,98305.13
2022-11-14T03:02:28.485Z,98305.13
2022-11-14T03:04:55.775Z,98305.13
2022-11-14T03:07:23.088Z,98302.47
2022-11-14T03:09:50.369Z,98299.94
2022-11-14T03:12:18.848Z,98299.94
2022-11-14T03:14:47.412Z,98312.94
2022-11-14T03:17:14.787Z,98310.19
2022-11-14T03:19:42.088Z,98315.28
2022-11-14T03:22:09.557Z,98304.16
2022-11-14T03:24:37.057Z,98312.00
2022-11-14T03:27:04.322Z,98308.66
2022-11-14T03:29:34.539Z,98313.19
2022-11-14T03:32:01.822Z,98316.38
2022-11-14T03:34:29.277Z,98311.16
2022-11-14T03:36:56.796Z,98311.13
2022-11-14T03:39:24.087Z,98315.28
2022-11-14T03:41:51.829Z,98313.59
2022-11-14T03:44:22.229Z,98312.44
2022-11-14T03:46:49.502Z,98308.53
2022-11-14T03:49:26.298Z,98306.81
2022-11-14T03:51:54.175Z,98296.28
2022-11-14T03:54:24.769Z,98297.09
2022-11-14T03:56:52.252Z,98305.78
2022-11-14T03:59:19.467Z,98308.53
2022-11-14T04:01:56.042Z,98301.59
2022-11-14T04:04:26.143Z,98305.91
2022-11-14T04:06:53.667Z,98299.81
2022-11-14T04:09:21.072Z,98292.34
2022-11-14T04:11:48.436Z,98294.84
2022-11-14T04:14:27.261Z,98300.00
2022-11-14T04:16:54.755Z,98296.41
2022-11-14T04:19:25.623Z,98294.72
2022-11-14T04:21:53.300Z,98295.84
2022-11-14T04:24:21.426Z,98298.38
2022-11-14T04:26:55.813Z,98296.69
2022-11-14T04:35:32.717Z,98299.22
2022-11-14T04:38:03.032Z,98302.41
2022-11-14T04:40:45.349Z,98299.81
2022-11-14T04:43:31.342Z,98313.44
2022-11-14T04:46:09.668Z,98298.72
2022-11-14T04:48:50.541Z,98306.44
2022-11-14T04:51:18.343Z,98309.94
2022-11-14T04:53:45.430Z,98306.81
2022-11-14T04:56:33.355Z,98310.19
2022-11-14T04:59:06.447Z,98310.91
2022-11-14T05:01:34.135Z,98308.25
2022-11-14T05:04:01.286Z,98317.56
2022-11-14T05:06:28.815Z,98307.88
2022-11-14T05:08:55.747Z,98312.22
2022-11-14T05:11:29.224Z,98309.41
2022-11-14T05:13:56.477Z,98314.63
2022-11-14T05:16:23.706Z,98314.50
2022-11-14T05:18:54.263Z,98310.13
2022-11-14T05:21:21.490Z,98311.78
2022-11-14T05:23:48.784Z,98315.94
2022-11-14T05:26:18.726Z,98314.09
2022-11-14T05:28:46.051Z,98315.94
2022-11-14T05:31:15.729Z,98321.13
2022-11-14T05:33:42.734Z,98324.66
2022-11-14T05:36:14.977Z,98320.47
2022-11-14T05:38:43.056Z,98320.53
2022-11-14T05:41:10.858Z,98318.00
2022-11-14T05:43:37.831Z,98319.75
2022-11-14T05:46:07.363Z,98316.44
2022-11-14T05:48:34.374Z,98315.66
2022-11-14T05:51:03.936Z,98316.59
2022-11-14T05:53:33.635Z,98322.44
2022-11-14T05:56:02.805Z,98307.75
2022-11-14T05:58:31.543Z,98318.78
2022-11-14T06:01:06.172Z,98319.28
2022-11-14T06:03:39.551Z,98326.06
2022-11-14T06:06:09.516Z,98321.38
2022-11-14T06:08:37.367Z,98329.06
2022-11-14T06:11:07.175Z,98330.72
2022-11-14T06:13:36.448Z,98323.56
2022-11-14T06:16:09.636Z,98317.97
2022-11-14T06:18:37.474Z,98310.78
2022-11-14T06:21:11.654Z,98311.44
2022-11-14T06:23:39.031Z,98313.13
2022-11-14T06:26:08.209Z,98313.00
2022-11-14T06:28:35.341Z,98307.78
2022-11-14T06:31:04.468Z,98311.09
2022-11-14T06:33:35.770Z,98321.22
2022-11-14T06:36:05.814Z,98313.97
2022-11-14T06:38:34.889Z,98309.41
2022-11-14T06:41:07.274Z,98305.88
2022-11-14T06:43:35.736Z,98309.06
2022-11-14T06:46:03.758Z,98311.31
2022-11-14T06:48:31.393Z,98304.06
2022-11-14T06:50:59.078Z,98311.66
2022-11-14T06:53:28.403Z,98316.84
2022-11-14T06:55:56.675Z,98311.69
2022-11-14T06:58:27.307Z,98302.63
2022-11-14T07:00:54.695Z,98304.16
2022-11-14T07:03:22.840Z,98298.50
2022-11-14T07:05:50.166Z,98296.06
2022-11-14T07:08:20.813Z,98286.06
2022-11-14T07:10:48.812Z,98290.66
2022-11-14T07:13:15.836Z,98285.69
2022-11-14T07:15:52.999Z,98283.63
2022-11-14T07:18:21.173Z,98289.03
2022-11-14T07:20:48.536Z,98285.06
2022-11-14T07:23:21.430Z,98285.63
2022-11-14T07:25:49.804Z,98288.88
2022-11-14T07:28:17.153Z,98284.56
2022-11-14T07:30:44.509Z,98282.31
2022-11-14T07:33:11.596Z,98292.06
2022-11-14T07:35:41.841Z,98283.75
2022-11-14T07:38:08.963Z,98284.44
2022-11-14T07:40:36.036Z,98282.09
2022-11-14T07:43:04.020Z,98273.53
2022-11-14T07:45:30.943Z,98275.72
2022-11-14T07:48:00.126Z,98269.28
2022-11-14T07:50:32.030Z,98271.06
2022-11-14T07:52:59.162Z,98264.84
2022-11-14T07:55:26.589Z,98271.53
2022-11-14T07:57:55.245Z,98268.75
2022-11-14T08:00:22.551Z,98276.28
2022-11-14T08:02:49.670Z,98269.75
2022-11-14T08:05:17.612Z,98268.25
2022-11-14T08:07:46.721Z,98267.00
2022-11-14T08:10:14.539Z,98264.47
2022-11-14T08:12:41.492Z,98263.31
2022-11-14T08:15:10.750Z,98262.31
2022-11-14T08:17:38.032Z,98255.31
2022-11-14T08:20:06.595Z,98258.56
2022-11-14T08:22:34.196Z,98260.78
2022-11-14T08:25:01.309Z,98252.84
2022-11-14T08:27:28.387Z,98257.81
2022-11-14T08:29:55.676Z,98259.38
2022-11-14T08:32:23.856Z,98260.84
2022-11-14T08:34:50.851Z,98264.94
2022-11-14T08:37:18.203Z,98247.03
2022-11-14T08:39:45.363Z,98240.56
2022-11-14T08:42:12.378Z,98241.59
2022-11-14T08:44:39.443Z,98247.41
2022-11-14T08:47:06.361Z,98243.16
2022-11-14T08:49:33.723Z,98237.03
2022-11-14T08:52:00.891Z,98241.91
2022-11-14T08:54:28.198Z,98237.28
2022-11-14T08:56:55.479Z,98233.84
2022-11-14T08:59:22.676Z,98219.63
2022-11-14T09:01:50.072Z,98221.44
2022-11-14T09:04:17.361Z,98223.03
2022-11-14T09:06:46.562Z,98221.22
2022-11-14T09:09:14.211Z,98211.16
2022-11-14T09:11:44.069Z,98207.06
2022-11-14T09:14:11.166Z,98198.44
2022-11-14T09:16:38.217Z,98193.38
2022-11-14T09:19:05.829Z,98197.59
2022-11-14T09:21:32.913Z,98187.38
2022-11-14T09:24:01.829Z,98180.00
2022-11-14T09:26:29.259Z,98178.41
2022-11-14T09:29:02.249Z,98171.16
2022-11-14T09:31:30.501Z,98165.16
2022-11-14T09:34:00.779Z,98163.88
2022-11-14T09:36:28.998Z,98165.63
2022-11-14T09:38:55.974Z,98152.34
2022-11-14T09:41:39.561Z,98153.56
2022-11-14T09:44:20.319Z,98145.63
2022-11-14T09:46:54.856Z,98152.06
2022-11-14T09:49:33.258Z,98144.13
2022-11-14T09:52:24.377Z,98137.63
2022-11-14T09:54:59.590Z,98141.91
2022-11-14T09:57:27.389Z,98135.22
2022-11-14T09:59:56.386Z,98139.16
2022-11-14T10:02:41.720Z,98125.53
2022-11-14T10:05:21.057Z,98127.94
2022-11-14T10:08:02.977Z,98123.31
2022-11-14T10:10:39.227Z,98118.34
2022-11-14T10:13:33.940Z,98121.41
2022-11-14T10:16:20.243Z,98117.97
2022-11-14T10:19:30.727Z,98114.72
2022-11-14T10:22:18.254Z,98110.56
2022-11-14T10:25:03.540Z,98113.63
2022-11-14T10:28:06.085Z,98104.75
2022-11-14T10:30:41.206Z,98107.84
2022-11-14T10:33:37.079Z,98093.97
2022-11-14T10:36:41.140Z,98093.38
2022-11-14T10:39:44.947Z,98089.50
2022-11-14T10:42:16.948Z,98086.69
2022-11-14T10:45:05.298Z,98084.06
2022-11-14T10:47:40.637Z,98090.03
2022-11-14T10:50:46.328Z,98088.38
2022-11-14T10:53:51.765Z,98081.41
2022-11-14T10:56:18.763Z,98087.59
2022-11-14T10:58:48.974Z,98076.38
2022-11-14T11:01:38.391Z,98083.59
2022-11-14T11:04:22.074Z,98081.16
2022-11-14T11:09:56.206Z,98083.56
2022-11-14T11:12:46.406Z,98080.91
2022-11-14T11:15:21.529Z,98078.94
2022-11-14T11:18:03.250Z,98082.03
2022-11-14T11:20:36.457Z,98074.78
2022-11-14T11:23:07.230Z,98066.16
2022-11-14T11:25:35.289Z,98072.84
2022-11-14T11:28:17.748Z,98066.44
2022-11-14T11:31:02.885Z,98067.00
2022-11-14T11:33:34.383Z,98067.56
2022-11-14T11:36:07.731Z,98063.78
2022-11-14T11:38:35.223Z,98059.72
2022-11-14T11:42:11.010Z,98061.81
2022-11-14T11:44:38.111Z,98056.13
2022-11-14T11:47:12.612Z,98053.59
2022-11-14T11:49:53.765Z,98059.03
2022-11-14T11:52:24.361Z,98053.31
2022-11-14T11:55:10.389Z,98048.06
2022-11-14T11:57:44.147Z,98039.13
2022-11-14T12:00:21.732Z,98040.41
2022-11-14T12:02:51.867Z,98033.00
2022-11-14T12:05:51.375Z,98039.69
2022-11-14T12:08:27.023Z,98041.06
2022-11-14T12:10:56.308Z,98043.28
2022-11-14T12:14:02.550Z,98040.19
2022-11-14T12:16:58.813Z,98033.63
2022-11-14T12:19:45.664Z,98024.00
2022-11-14T12:22:47.286Z,98027.91
2022-11-14T12:25:41.460Z,98030.28
2022-11-14T12:28:14.354Z,98030.97
2022-11-14T12:30:46.645Z,98030.13
2022-11-14T12:33:24.366Z,98036.28
2022-11-14T12:36:01.341Z,98024.91
2022-11-14T12:38:42.559Z,98027.94
2022-11-14T12:41:10.699Z,98032.06
2022-11-14T12:43:40.101Z,98031.41
2022-11-14T12:46:13.354Z,98039.09
2022-11-14T12:48:45.043Z,98036.22
2022-11-14T12:51:27.820Z,98038.88
2022-11-14T12:53:56.681Z,98043.31
2022-11-14T12:56:29.786Z,98043.19
2022-11-14T12:59:18.494Z,98050.28
2022-11-14T13:01:54.976Z,98043.59
2022-11-14T13:04:43.352Z,98056.56
2022-11-14T13:07:16.200Z,98055.56
2022-11-14T13:10:12.161Z,98054.34
2022-11-14T13:13:00.347Z,98048.66
2022-11-14T13:15:50.936Z,98055.03
2022-11-14T13:18:41.351Z,98053.69
2022-11-14T13:21:47.350Z,98059.31
2022-11-14T13:24:19.380Z,98057.88
2022-11-14T13:26:52.319Z,98060.13
2022-11-14T13:29:45.537Z,98057.03
2022-11-14T13:32:13.170Z,98068.56
2022-11-14T13:34:52.673Z,98062.63
2022-11-14T13:37:49.283Z,98065.53
2022-11-14T13:40:38.602Z,98064.81
2022-11-14T13:43:38.082Z,98072.97
2022-11-14T13:46:31.588Z,98064.38
2022-11-14T13:49:22.114Z,98066.28
2022-11-14T13:51:53.826Z,98060.03
2022-11-14T13:54:21.426Z,98071.84
2022-11-14T13:57:16.446Z,98067.63
2022-11-14T13:59:52.734Z,98067.84
2022-11-14T14:02:33.958Z,98073.28
2022-11-14T14:05:48.516Z,98071.50
2022-11-14T14:08:58.220Z,98077.81
2022-11-14T14:11:28.243Z,98072.41
2022-11-14T14:14:07.444Z,98073.31
2022-11-14T14:16:34.682Z,98072.03
2022-11-14T14:19:29.949Z,98071.50
2022-11-14T14:22:19.267Z,98070.72
2022-11-14T14:25:06.318Z,98063.59
2022-11-14T14:27:58.193Z,98073.50
2022-11-14T14:30:25.537Z,98079.38
2022-11-14T14:33:13.035Z,98075.69
2022-11-14T14:35:50.854Z,98074.31
2022-11-14T14:38:28.374Z,98077.06
2022-11-14T14:40:56.456Z,98073.06
2022-11-14T14:43:37.307Z,98066.38
2022-11-14T14:46:04.443Z,98065.66
2022-11-14T14:48:35.537Z,98068.38
2022-11-14T14:51:07.584Z,98070.03
2022-11-14T14:53:36.978Z,98066.56
2022-11-14T14:56:17.356Z,98066.69
2022-11-14T14:58:44.700Z,98071.19
2022-11-14T15:01:17.764Z,98072.25
2022-11-14T15:04:03.080Z,98070.59
2022-11-14T15:06:38.716Z,98070.59
2022-11-14T15:09:17.551Z,98069.53
2022-11-14T15:11:47.866Z,98079.94
2022-11-14T15:14:22.568Z,98080.47
2022-11-14T15:16:51.255Z,98076.88
2022-11-14T15:19:25.169Z,98082.78
2022-11-14T15:22:21.409Z,98079.78
2022-11-14T15:25:27.724Z,98079.97
2022-11-14T15:27:55.730Z,98080.69
2022-11-14T15:30:28.276Z,98084.47
2022-11-14T15:32:58.034Z,98082.06
2022-11-14T15:35:34.369Z,98084.66
2022-11-14T15:38:43.143Z,98086.56
2022-11-14T15:41:18.040Z,98089.38
2022-11-14T15:43:45.133Z,98094.63
2022-11-14T15:46:30.833Z,98092.97
2022-11-14T15:48:59.945Z,98095.66
2022-11-14T15:52:02.263Z,98095.47
2022-11-14T15:54:32.434Z,98104.91
2022-11-14T15:57:19.717Z,98102.38
2022-11-14T15:59:47.292Z,98100.19
2022-11-14T16:02:24.298Z,98094.75
2022-11-14T16:04:53.835Z,98082.41
2022-11-14T16:07:21.459Z,98087.09
2022-11-14T16:09:49.212Z,98102.50
2022-11-14T16:12:16.591Z,98102.03
2022-11-14T16:14:44.108Z,98098.66
2022-11-14T16:17:16.488Z,98097.41
2022-11-14T16:19:44.371Z,98089.44
2022-11-14T16:22:18.306Z,98089.22
2022-11-14T16:24:45.536Z,98089.22
2022-11-14T16:28:12.509Z,98093.41
2022-11-14T16:31:17.425Z,98087.34
2022-11-14T16:33:51.169Z,98084.59
2022-11-14T16:36:25.723Z,98088.91
2022-11-14T16:39:04.073Z,98083.69
2022-11-14T16:41:49.690Z,98081.06
2022-11-14T16:44:42.007Z,98093.84
2022-11-14T16:50:09.997Z,98085.47
2022-11-14T16:52:41.247Z,98086.28
2022-11-14T16:55:16.660Z,98088.81
2022-11-14T16:57:48.517Z,98085.25
2022-11-14T17:00:16.855Z,98081.69
2022-11-14T17:02:44.895Z,98075.84
2022-11-14T17:05:12.225Z,98072.28
2022-11-14T17:07:46.001Z,98062.16
2022-11-14T17:10:17.528Z,98080.00
2022-11-14T17:12:45.865Z,98077.69
2022-11-14T17:15:17.393Z,98078.09
2022-11-14T17:17:51.230Z,98086.72
2022-11-14T17:20:19.155Z,98081.47
2022-11-14T17:22:46.599Z,98084.31
2022-11-14T17:25:14.450Z,98082.84
2022-11-14T17:27:45.006Z,98082.44
2022-11-14T17:30:13.636Z,98079.50
2022-11-14T17:32:41.738Z,98072.88
2022-11-14T17:35:13.439Z,98072.97
2022-11-14T17:37:45.848Z,98069.72
2022-11-14T17:40:18.906Z,98071.41
2022-11-14T17:43:47.148Z,98063.72
2022-11-14T17:46:03.683Z,98071.59
2022-11-14T17:51:31.092Z,98061.94
2022-11-14T17:54:02.873Z,98061.09
2022-11-14T17:56:45.746Z,98057.13
2022-11-14T17:59:43.188Z,98055.03
2022-11-14T18:05:31.667Z,98047.84
2022-11-14T18:08:17.471Z,98048.47
2022-11-14T18:11:09.538Z,98054.63
2022-11-14T18:13:50.528Z,98051.28
2022-11-14T18:19:27.447Z,98058.84
2022-11-14T18:22:04.237Z,98057.06
2022-11-14T18:27:45.635Z,98058.44
2022-11-14T18:30:39.946Z,98053.19
2022-11-14T18:33:05.496Z,98054.22
2022-11-14T18:35:47.305Z,98053.19
2022-11-14T18:38:21.130Z,98052.66
2022-11-14T18:41:01.548Z,98048.22
2022-11-14T18:43:45.535Z,98055.06
2022-11-14T18:46:27.460Z,98052.75
2022-11-14T18:49:11.524Z,98048.84
2022-11-14T18:51:49.671Z,98056.53
2022-11-14T18:54:29.343Z,98052.75
2022-11-14T18:57:09.735Z,98047.31
2022-11-14T19:08:23.732Z,98042.47
2022-11-14T19:11:37.369Z,98041.81
2022-11-14T19:17:20.152Z,98041.19
2022-11-14T19:20:14.419Z,98040.47
2022-11-14T19:22:47.997Z,98034.47
2022-11-14T19:25:27.419Z,98043.28
2022-11-14T19:28:09.459Z,98031.72
2022-11-14T19:30:56.306Z,98043.72
2022-11-14T19:36:59.503Z,98042.00
2022-11-14T19:39:39.974Z,98039.72
2022-11-14T19:42:19.186Z,98038.47
2022-11-14T19:44:51.169Z,98032.34
2022-11-14T19:47:27.221Z,98032.34
2022-11-14T19:50:07.022Z,98031.97
2022-11-14T19:52:36.820Z,98032.81
2022-11-14T19:55:15.349Z,98035.44
2022-11-14T19:57:56.817Z,98036.34
2022-11-14T20:00:35.640Z,98036.97
2022-11-14T20:03:14.681Z,98034.59
2022-11-14T20:05:53.288Z,98030.31
2022-11-14T20:08:28.964Z,98042.47
2022-11-14T20:11:29.263Z,98027.56
2022-11-14T20:14:10.586Z,98031.66
2022-11-14T20:16:55.561Z,98041.09
2022-11-14T20:19:52.564Z,98041.63
2022-11-14T20:22:20.520Z,98031.34
2022-11-14T20:24:48.277Z,98028.19
2022-11-14T20:27:15.979Z,98031.56
2022-11-14T20:29:44.422Z,98027.38
2022-11-14T20:32:15.979Z,98026.31
2022-11-14T20:34:49.656Z,98030.81
2022-11-14T20:37:29.381Z,98035.13
2022-11-14T20:40:01.518Z,98029.44
2022-11-14T20:42:29.199Z,98035.44
2022-11-14T20:44:56.440Z,98029.88
2022-11-14T20:47:27.122Z,98028.19
2022-11-14T20:49:54.759Z,98022.94
2022-11-14T20:52:22.217Z,98026.53
2022-11-14T20:54:56.476Z,98018.34
2022-11-14T20:57:26.844Z,98021.06
2022-11-14T21:00:00.037Z,98021.91
2022-11-14T21:02:48.822Z,98021.78
2022-11-14T21:05:45.322Z,98022.53
2022-11-14T21:08:15.784Z,98020.88
2022-11-14T21:11:02.970Z,98017.69
2022-11-14T21:16:55.802Z,98015.91
2022-11-14T21:19:51.432Z,98015.81
2022-11-14T21:22:29.019Z,98013.63
2022-11-14T21:25:24.600Z,98005.88
2022-11-14T21:27:56.726Z,97999.84
2022-11-14T21:30:46.571Z,98004.47
2022-11-14T21:33:17.413Z,98005.09
2022-11-14T21:35:50.205Z,98001.63
2022-11-14T21:38:19.055Z,98001.84
2022-11-14T21:40:53.368Z,98000.16
2022-11-14T21:44:08.230Z,98006.47
2022-11-14T21:46:56.593Z,98003.19
2022-11-14T21:52:21.156Z,98001.97
2022-11-14T21:55:03.523Z,98001.31
2022-11-14T21:58:44.065Z,97995.25
2022-11-14T22:02:02.865Z,97990.84
2022-11-14T22:04:41.462Z,97989.69
2022-11-14T22:07:18.864Z,97976.97
2022-11-14T22:12:57.604Z,97978.88
2022-11-14T22:15:34.684Z,97977.19
2022-11-14T22:18:14.351Z,97977.59
2022-11-14T22:21:09.356Z,97971.94
2022-11-14T22:23:47.912Z,97970.47
2022-11-14T22:26:48.434Z,97975.63
2022-11-14T22:29:21.077Z,97970.28
2022-11-14T22:31:53.272Z,97964.28
2022-11-14T22:34:22.022Z,97957.91
2022-11-14T22:37:09.631Z,97959.03
2022-11-14T22:39:39.039Z,97955.50
2022-11-14T22:42:20.105Z,97949.28
2022-11-14T22:44:57.451Z,97944.25
2022-11-14T22:47:38.813Z,97933.56
2022-11-14T22:50:14.075Z,97938.59
2022-11-14T22:53:02.132Z,97937.13
2022-11-14T22:58:25.514Z,97938.50
2022-11-14T23:01:11.514Z,97937.66
2022-11-14T23:06:41.755Z,97934.53
2022-11-14T23:09:08.927Z,97935.16
2022-11-14T23:11:36.421Z,97933.59
2022-11-14T23:14:04.726Z,97932.34
2022-11-14T23:16:34.908Z,97925.41
2022-11-14T23:19:05.674Z,97938.41
2022-11-14T23:21:47.590Z,97933.59
2022-11-14T23:27:04.703Z,97924.25
2022-11-14T23:29:33.454Z,97930.00
2022-11-14T23:32:00.993Z,97928.13
2022-11-14T23:34:28.527Z,97926.22
2022-11-14T23:36:55.522Z,97928.00
2022-11-14T23:40:01.491Z,97924.56
2022-11-14T23:42:32.326Z,97933.16
2022-11-14T23:45:09.088Z,97925.19
2022-11-14T23:47:41.584Z,97924.16
2022-11-14T23:50:33.817Z,97909.25
2022-11-14T23:53:49.977Z,97915.53
2022-11-14T23:59:07.640Z,97912.81
